createdAt,value
2022-09-02T00:00:20.352Z,17.80
2022-09-02T00:03:05.599Z,17.80
2022-09-02T00:05:50.844Z,17.80
2022-09-02T00:08:36.268Z,17.70
2022-09-02T00:11:30.057Z,17.50
2022-09-02T00:14:19.834Z,17.50
2022-09-02T00:17:05.709Z,17.50
2022-09-02T00:19:55.541Z,17.50
2022-09-02T00:22:41.275Z,17.40
2022-09-02T00:25:27.281Z,17.40
2022-09-02T00:28:15.087Z,17.50
2022-09-02T00:31:00.650Z,17.50
2022-09-02T00:33:45.987Z,17.50
2022-09-02T00:36:32.426Z,17.40
2022-09-02T00:39:18.258Z,17.40
2022-09-02T00:42:04.329Z,17.40
2022-09-02T00:44:50.108Z,17.40
2022-09-02T00:47:36.800Z,17.50
2022-09-02T00:50:27.877Z,17.50
2022-09-02T00:53:14.927Z,17.50
2022-09-02T00:56:01.363Z,17.30
2022-09-02T00:58:47.743Z,17.40
2022-09-02T01:01:33.240Z,17.50
2022-09-02T01:04:18.912Z,17.50
2022-09-02T01:07:04.480Z,17.50
2022-09-02T01:09:51.273Z,17.50
2022-09-02T01:12:37.764Z,17.60
2022-09-02T01:15:22.780Z,17.50
2022-09-02T01:18:10.707Z,17.50
2022-09-02T01:20:59.623Z,17.60
2022-09-02T01:23:46.675Z,17.60
2022-09-02T01:26:32.451Z,17.60
2022-09-02T01:29:17.869Z,17.50
2022-09-02T01:32:03.149Z,17.50
2022-09-02T01:34:48.818Z,17.50
2022-09-02T01:37:34.755Z,17.50
2022-09-02T01:40:20.022Z,17.50
2022-09-02T01:43:12.542Z,17.60
2022-09-02T01:45:58.455Z,17.50
2022-09-02T01:48:43.904Z,17.50
2022-09-02T01:51:29.377Z,17.40
2022-09-02T01:54:14.820Z,17.30
2022-09-02T01:57:01.584Z,17.30
2022-09-02T01:59:46.767Z,17.30
2022-09-02T02:02:32.123Z,17.30
2022-09-02T02:05:18.006Z,17.30
2022-09-02T02:08:04.481Z,17.20
2022-09-02T02:10:50.047Z,17.20
2022-09-02T02:13:35.796Z,17.10
2022-09-02T02:16:21.242Z,17.10
2022-09-02T02:19:06.792Z,17.20
2022-09-02T02:21:52.352Z,17.20
2022-09-02T02:24:37.894Z,17.10
2022-09-02T02:27:23.415Z,17.10
2022-09-02T02:30:09.516Z,17.00
2022-09-02T02:32:54.549Z,16.90
2022-09-02T02:35:40.788Z,17.00
2022-09-02T02:38:25.836Z,17.00
2022-09-02T02:41:11.220Z,16.90
2022-09-02T02:43:56.683Z,16.90
2022-09-02T02:46:42.602Z,16.90
2022-09-02T02:49:29.162Z,16.90
2022-09-02T02:52:14.645Z,16.80
2022-09-02T02:54:59.872Z,16.80
2022-09-02T02:57:45.900Z,16.70
2022-09-02T03:00:32.512Z,16.70
2022-09-02T03:03:22.382Z,16.70
2022-09-02T03:06:07.839Z,16.70
2022-09-02T03:08:53.524Z,16.70
2022-09-02T03:11:38.584Z,16.70
2022-09-02T03:14:24.624Z,16.60
2022-09-02T03:17:10.087Z,16.60
2022-09-02T03:19:57.700Z,16.60
2022-09-02T03:22:45.036Z,16.50
2022-09-02T03:25:35.775Z,16.50
2022-09-02T03:28:21.377Z,16.50
2022-09-02T03:31:07.269Z,16.50
2022-09-02T03:33:53.046Z,16.40
2022-09-02T03:36:39.760Z,16.40
2022-09-02T03:39:25.266Z,16.40
2022-09-02T03:42:19.466Z,16.30
2022-09-02T03:45:06.996Z,16.30
2022-09-02T03:47:54.157Z,16.20
2022-09-02T03:50:41.813Z,16.30
2022-09-02T03:53:27.137Z,16.30
2022-09-02T03:56:14.959Z,16.20
2022-09-02T03:59:00.409Z,16.10
2022-09-02T04:01:47.075Z,16.00
2022-09-02T04:04:32.700Z,16.00
2022-09-02T04:07:17.834Z,16.00
2022-09-02T04:10:03.816Z,16.00
2022-09-02T04:12:51.157Z,15.90
2022-09-02T04:15:39.979Z,15.90
2022-09-02T04:18:25.235Z,15.80
2022-09-02T04:21:13.787Z,15.80
2022-09-02T04:23:59.063Z,15.70
2022-09-02T04:26:45.107Z,15.60
2022-09-02T04:29:31.904Z,15.60
2022-09-02T04:32:17.233Z,15.70
2022-09-02T04:35:02.792Z,15.60
2022-09-02T04:37:49.030Z,15.70
2022-09-02T04:40:34.633Z,15.70
2022-09-02T04:43:19.938Z,15.60
2022-09-02T04:46:07.449Z,15.60
2022-09-02T04:48:55.019Z,15.50
2022-09-02T04:51:41.196Z,15.50
2022-09-02T04:54:26.998Z,15.40
2022-09-02T04:57:12.418Z,15.50
2022-09-02T04:59:57.774Z,15.40
2022-09-02T05:02:44.362Z,15.40
2022-09-02T05:05:29.732Z,15.40
2022-09-02T05:08:15.307Z,15.40
2022-09-02T05:11:02.115Z,15.50
2022-09-02T05:13:51.507Z,15.50
2022-09-02T05:16:40.001Z,15.50
2022-09-02T05:19:25.226Z,15.50
2022-09-02T05:22:10.600Z,15.80
2022-09-02T05:24:56.861Z,15.50
2022-09-02T05:27:42.021Z,15.50
2022-09-02T05:30:27.453Z,15.50
2022-09-02T05:33:13.506Z,15.50
2022-09-02T05:36:00.127Z,15.60
2022-09-02T05:38:46.870Z,15.60
2022-09-02T05:41:32.367Z,15.60
2022-09-02T05:44:17.502Z,15.60
2022-09-02T05:47:03.217Z,15.70
2022-09-02T05:49:48.307Z,15.70
2022-09-02T05:52:33.740Z,15.70
2022-09-02T05:55:19.264Z,15.80
2022-09-02T05:58:04.600Z,15.80
2022-09-02T06:00:50.169Z,15.80
2022-09-02T06:03:35.412Z,15.80
2022-09-02T06:06:23.766Z,15.90
2022-09-02T06:09:11.429Z,15.90
2022-09-02T06:11:56.577Z,16.00
2022-09-02T06:14:42.865Z,16.00
2022-09-02T06:17:28.083Z,16.00
2022-09-02T06:20:13.460Z,16.10
2022-09-02T06:22:58.933Z,16.10
2022-09-02T06:25:46.520Z,16.10
2022-09-02T06:28:32.487Z,16.20
2022-09-02T06:31:21.823Z,16.20
2022-09-02T06:34:07.089Z,16.20
2022-09-02T06:36:52.748Z,16.30
2022-09-02T06:39:38.170Z,16.20
2022-09-02T06:42:23.896Z,16.20
2022-09-02T06:45:09.763Z,16.30
2022-09-02T06:47:55.177Z,16.30
2022-09-02T06:50:46.089Z,16.30
2022-09-02T06:53:31.361Z,16.20
2022-09-02T06:56:16.921Z,16.30
2022-09-02T06:59:03.782Z,16.30
2022-09-02T07:01:49.518Z,16.30
2022-09-02T07:04:55.675Z,16.40
2022-09-02T07:07:45.905Z,16.30
2022-09-02T07:10:31.853Z,16.50
2022-09-02T07:13:17.310Z,16.50
2022-09-02T07:16:03.319Z,16.60
2022-09-02T07:18:48.628Z,16.70
2022-09-02T07:21:34.034Z,16.70
2022-09-02T07:24:19.788Z,16.80
2022-09-02T07:27:05.881Z,16.80
2022-09-02T07:29:50.944Z,16.90
2022-09-02T07:32:37.012Z,17.00
2022-09-02T07:35:22.399Z,17.00
2022-09-02T07:38:08.867Z,17.10
2022-09-02T07:40:56.961Z,17.20
2022-09-02T07:43:43.103Z,17.20
2022-09-02T07:46:31.228Z,17.30
2022-09-02T07:49:22.079Z,17.40
2022-09-02T07:52:09.107Z,17.50
2022-09-02T07:54:54.471Z,17.70
2022-09-02T07:57:39.803Z,17.80
2022-09-02T08:00:27.702Z,17.80
2022-09-02T08:03:13.627Z,17.90
2022-09-02T08:05:59.289Z,18.10
2022-09-02T08:08:44.512Z,18.20
2022-09-02T08:11:29.979Z,18.40
2022-09-02T08:14:19.678Z,18.50
2022-09-02T08:17:05.127Z,18.60
2022-09-02T08:19:51.628Z,18.80
2022-09-02T08:22:37.164Z,18.90
2022-09-02T08:25:22.336Z,19.00
2022-09-02T08:28:07.984Z,19.20
2022-09-02T08:30:54.824Z,19.40
2022-09-02T08:33:39.969Z,19.60
2022-09-02T08:36:25.445Z,19.70
2022-09-02T08:39:11.377Z,19.70
2022-09-02T08:42:24.392Z,19.80
2022-09-02T08:45:09.974Z,19.80
2022-09-02T08:48:19.853Z,19.90
2022-09-02T08:51:10.211Z,19.90
2022-09-02T08:54:06.145Z,20.20
2022-09-02T08:56:52.573Z,20.40
2022-09-02T09:02:47.662Z,20.60
2022-09-02T09:05:47.679Z,20.70
2022-09-02T09:08:37.678Z,20.90
2022-09-02T09:11:38.611Z,20.90
2022-09-02T09:14:45.099Z,21.10
2022-09-02T09:17:46.841Z,21.40
2022-09-02T09:20:34.585Z,21.50
2022-09-02T09:23:29.823Z,21.50
2022-09-02T09:26:23.614Z,21.20
2022-09-02T09:29:08.967Z,20.90
2022-09-02T09:31:58.498Z,20.80
2022-09-02T09:34:53.274Z,20.70
2022-09-02T09:37:39.991Z,20.60
2022-09-02T09:40:32.387Z,20.80
2022-09-02T09:43:17.992Z,21.10
2022-09-02T09:46:22.139Z,21.10
2022-09-02T09:49:07.316Z,21.10
2022-09-02T09:51:56.362Z,21.00
2022-09-02T09:54:41.575Z,21.00
2022-09-02T09:57:27.164Z,21.00
2022-09-02T10:00:31.922Z,21.20
2022-09-02T10:03:32.840Z,21.20
2022-09-02T10:06:32.200Z,21.30
2022-09-02T10:09:20.363Z,21.30
2022-09-02T10:12:06.198Z,21.20
2022-09-02T10:14:52.515Z,21.00
2022-09-02T10:18:05.621Z,20.90
2022-09-02T10:21:15.999Z,20.80
2022-09-02T10:24:32.031Z,21.00
2022-09-02T10:27:37.407Z,21.10
2022-09-02T10:30:24.454Z,21.40
2022-09-02T10:33:33.230Z,21.90
2022-09-02T10:36:44.428Z,22.20
2022-09-02T10:40:08.427Z,23.00
2022-09-02T10:43:06.009Z,23.20
2022-09-02T10:45:58.032Z,23.50
2022-09-02T10:49:04.754Z,23.40
2022-09-02T10:52:05.368Z,23.80
2022-09-02T10:55:28.693Z,23.70
2022-09-02T10:58:29.628Z,24.10
2022-09-02T11:01:20.428Z,24.60
2022-09-02T11:04:08.792Z,24.90
2022-09-02T11:07:04.548Z,25.40
2022-09-02T11:09:57.714Z,25.90
2022-09-02T11:12:52.452Z,26.30
2022-09-02T11:15:48.818Z,26.10
2022-09-02T11:19:12.251Z,25.70
2022-09-02T11:22:25.512Z,25.40
2022-09-02T11:25:27.477Z,25.30
2022-09-02T11:28:27.144Z,25.20
2022-09-02T11:31:19.361Z,24.80
2022-09-02T11:34:16.680Z,24.40
2022-09-02T11:37:12.605Z,24.30
2022-09-02T11:40:34.211Z,23.80
2022-09-02T11:43:52.235Z,23.60
2022-09-02T11:47:04.152Z,23.40
2022-09-02T11:50:20.925Z,23.40
2022-09-02T11:53:24.748Z,23.20
2022-09-02T11:56:18.229Z,23.70
2022-09-02T11:59:06.715Z,24.40
2022-09-02T12:01:54.726Z,24.70
2022-09-02T12:04:59.146Z,25.40
2022-09-02T12:07:50.058Z,25.60
2022-09-02T12:10:42.487Z,26.00
2022-09-02T12:13:41.462Z,26.10
2022-09-02T12:16:41.042Z,25.90
2022-09-02T12:19:28.631Z,25.50
2022-09-02T12:22:16.700Z,25.20
2022-09-02T12:25:03.936Z,24.90
2022-09-02T12:27:50.073Z,25.40
2022-09-02T12:31:08.599Z,25.80
2022-09-02T12:33:54.199Z,25.50
2022-09-02T12:36:46.953Z,25.50
2022-09-02T12:39:32.190Z,25.40
2022-09-02T12:42:25.219Z,25.00
2022-09-02T12:45:28.171Z,24.80
2022-09-02T12:48:18.865Z,24.50
2022-09-02T12:51:51.357Z,24.60
2022-09-02T12:54:47.635Z,25.20
2022-09-02T12:57:54.883Z,25.40
2022-09-02T13:00:54.765Z,25.90
2022-09-02T13:04:10.688Z,26.00
2022-09-02T13:07:28.741Z,26.10
2022-09-02T13:10:44.781Z,25.70
2022-09-02T13:14:01.452Z,25.70
2022-09-02T13:17:35.998Z,25.40
2022-09-02T13:20:55.628Z,25.20
2022-09-02T13:24:10.343Z,25.00
2022-09-02T13:27:13.355Z,24.80
2022-09-02T13:30:16.435Z,25.00
2022-09-02T13:33:08.176Z,25.30
2022-09-02T13:35:59.404Z,25.10
2022-09-02T13:38:44.663Z,25.00
2022-09-02T13:41:33.555Z,25.00
2022-09-02T13:44:29.545Z,25.40
2022-09-02T13:47:20.754Z,26.10
2022-09-02T13:50:06.906Z,26.30
2022-09-02T13:56:09.703Z,26.20
2022-09-02T13:58:58.150Z,25.90
2022-09-02T14:01:43.595Z,25.90
2022-09-02T14:04:29.375Z,26.00
2022-09-02T14:07:15.715Z,26.40
2022-09-02T14:10:04.525Z,26.60
2022-09-02T14:12:50.999Z,26.70
2022-09-02T14:15:36.577Z,27.10
2022-09-02T14:18:24.932Z,27.30
2022-09-02T14:21:09.824Z,27.20
2022-09-02T14:23:55.331Z,27.50
2022-09-02T14:26:46.361Z,27.50
2022-09-02T14:29:32.105Z,27.40
2022-09-02T14:32:26.235Z,27.40
2022-09-02T14:35:21.791Z,27.50
2022-09-02T14:38:06.738Z,27.50
2022-09-02T14:41:11.288Z,27.90
2022-09-02T14:44:08.440Z,27.80
2022-09-02T14:46:56.820Z,27.50
2022-09-02T14:49:51.336Z,27.50
2022-09-02T14:52:38.505Z,27.20
2022-09-02T14:55:42.443Z,26.80
2022-09-02T14:58:28.513Z,26.60
2022-09-02T15:01:14.750Z,27.10
2022-09-02T15:04:01.647Z,27.40
2022-09-02T15:06:47.719Z,27.40
2022-09-02T15:09:35.211Z,27.50
2022-09-02T15:12:26.326Z,26.90
2022-09-02T15:15:11.517Z,26.90
2022-09-02T15:17:56.703Z,26.60
2022-09-02T15:20:42.192Z,26.20
2022-09-02T15:23:29.992Z,26.80
2022-09-02T15:26:17.801Z,27.30
2022-09-02T15:29:03.495Z,27.50
2022-09-02T15:31:52.001Z,27.60
2022-09-02T15:34:37.088Z,27.80
2022-09-02T15:37:22.377Z,28.00
2022-09-02T15:40:08.808Z,27.90
2022-09-02T15:42:54.216Z,28.20
2022-09-02T15:45:48.540Z,28.20
2022-09-02T15:48:33.771Z,28.30
2022-09-02T15:51:21.968Z,28.30
2022-09-02T15:54:09.797Z,28.40
2022-09-02T15:56:56.868Z,28.40
2022-09-02T15:59:42.301Z,28.50
2022-09-02T16:02:27.397Z,28.40
2022-09-02T16:05:14.029Z,28.30
2022-09-02T16:07:59.621Z,28.00
2022-09-02T16:10:45.176Z,28.00
2022-09-02T16:13:31.031Z,27.90
2022-09-02T16:16:17.485Z,28.00
2022-09-02T16:19:05.041Z,27.90
2022-09-02T16:21:51.312Z,27.60
2022-09-02T16:24:36.664Z,27.50
2022-09-02T16:27:42.097Z,27.40
2022-09-02T16:30:27.593Z,27.50
2022-09-02T16:33:12.859Z,27.50
2022-09-02T16:35:58.104Z,27.30
2022-09-02T16:38:43.648Z,27.00
2022-09-02T16:41:34.429Z,27.10
2022-09-02T16:44:22.412Z,27.00
2022-09-02T16:47:07.765Z,26.80
2022-09-02T16:49:53.057Z,26.60
2022-09-02T16:52:39.966Z,26.30
2022-09-02T16:55:25.329Z,26.30
2022-09-02T16:58:11.207Z,26.20
2022-09-02T17:00:57.392Z,25.90
2022-09-02T17:03:44.479Z,25.70
2022-09-02T17:06:30.257Z,25.90
2022-09-02T17:09:16.351Z,25.90
2022-09-02T17:12:01.809Z,25.60
2022-09-02T17:14:47.321Z,25.40
2022-09-02T17:17:33.087Z,25.30
2022-09-02T17:20:18.392Z,25.20
2022-09-02T17:23:04.833Z,25.20
2022-09-02T17:25:50.199Z,25.00
2022-09-02T17:28:35.611Z,24.90
2022-09-02T17:31:28.379Z,24.60
2022-09-02T17:34:14.895Z,24.50
2022-09-02T17:36:59.980Z,24.40
2022-09-02T17:39:45.537Z,24.00
2022-09-02T17:42:32.284Z,23.80
2022-09-02T17:45:17.433Z,23.70
2022-09-02T17:48:31.900Z,23.70
2022-09-02T17:51:08.653Z,23.60
2022-09-02T17:53:53.946Z,23.40
2022-09-02T17:56:59.915Z,23.40
2022-09-02T18:00:01.268Z,23.30
2022-09-02T18:02:59.000Z,23.20
2022-09-02T18:06:05.088Z,23.10
2022-09-02T18:09:00.491Z,23.00
2022-09-02T18:11:45.746Z,22.90
2022-09-02T18:14:40.670Z,22.80
2022-09-02T18:17:35.197Z,22.80
2022-09-02T18:20:27.145Z,22.70
2022-09-02T18:23:31.137Z,22.60
2022-09-02T18:26:30.275Z,22.50
2022-09-02T18:29:32.926Z,22.40
2022-09-02T18:32:40.621Z,22.30
2022-09-02T18:35:44.351Z,22.20
2022-09-02T18:39:06.057Z,22.10
2022-09-02T18:42:10.282Z,22.00
2022-09-02T18:45:20.862Z,22.00
2022-09-02T18:48:13.187Z,21.90
2022-09-02T18:51:25.054Z,21.70
2022-09-02T18:54:15.196Z,21.80
2022-09-02T18:57:05.345Z,21.80
2022-09-02T19:00:02.980Z,21.70
2022-09-02T19:03:01.714Z,21.70
2022-09-02T19:05:46.979Z,21.60
2022-09-02T19:08:33.947Z,21.60
2022-09-02T19:11:19.146Z,21.50
2022-09-02T19:14:16.795Z,21.50
2022-09-02T19:17:02.563Z,21.50
2022-09-02T19:19:47.525Z,21.40
2022-09-02T19:22:37.091Z,21.40
2022-09-02T19:25:25.365Z,21.40
2022-09-02T19:28:14.261Z,21.30
2022-09-02T19:31:04.150Z,21.30
2022-09-02T19:33:52.649Z,21.20
2022-09-02T19:36:42.904Z,21.20
2022-09-02T19:39:28.145Z,21.20
2022-09-02T19:42:13.501Z,21.20
2022-09-02T19:45:00.557Z,21.10
2022-09-02T19:50:50.994Z,21.00
2022-09-02T19:53:39.039Z,21.00
2022-09-02T19:56:24.515Z,20.90
2022-09-02T19:59:10.845Z,20.90
2022-09-02T20:01:57.356Z,20.80
2022-09-02T20:04:42.701Z,20.80
2022-09-02T20:07:28.149Z,20.70
2022-09-02T20:10:13.724Z,20.60
2022-09-02T20:12:59.820Z,20.60
2022-09-02T20:15:44.917Z,20.60
2022-09-02T20:18:31.089Z,20.60
2022-09-02T20:21:27.968Z,20.50
2022-09-02T20:24:20.512Z,20.40
2022-09-02T20:27:14.735Z,20.40
2022-09-02T20:30:12.730Z,20.40
2022-09-02T20:33:05.241Z,20.40
2022-09-02T20:36:11.135Z,20.40
2022-09-02T20:39:18.364Z,20.20
2022-09-02T20:42:41.036Z,20.10
2022-09-02T20:45:29.721Z,20.10
2022-09-02T20:48:47.235Z,20.10
2022-09-02T20:51:41.473Z,20.10
2022-09-02T20:54:52.881Z,20.00
2022-09-02T20:58:17.390Z,19.90
2022-09-02T21:01:16.125Z,20.00
2022-09-02T21:04:34.730Z,20.00
2022-09-02T21:07:35.660Z,20.00
2022-09-02T21:10:32.044Z,20.00
2022-09-02T21:13:33.838Z,20.00
2022-09-02T21:16:26.918Z,20.00
2022-09-02T21:19:33.832Z,20.00
2022-09-02T21:22:30.476Z,20.00
2022-09-02T21:25:25.119Z,20.00
2022-09-02T21:28:17.468Z,20.00
2022-09-02T21:31:08.789Z,19.90
2022-09-02T21:33:56.017Z,19.90
2022-09-02T21:36:41.765Z,19.90
2022-09-02T21:39:29.977Z,19.90
2022-09-02T21:42:29.469Z,19.80
2022-09-02T21:45:29.760Z,19.80
2022-09-02T21:48:39.960Z,19.80
2022-09-02T21:51:36.540Z,19.70
2022-09-02T21:54:47.204Z,19.70
2022-09-02T21:58:00.965Z,19.60
2022-09-02T22:00:54.229Z,19.60
2022-09-02T22:03:45.516Z,19.70
2022-09-02T22:06:41.933Z,19.70
2022-09-02T22:09:32.782Z,19.60
2022-09-02T22:12:18.493Z,19.40
2022-09-02T22:15:28.000Z,19.40
2022-09-02T22:18:48.903Z,19.40
2022-09-02T22:21:55.031Z,19.40
2022-09-02T22:24:40.930Z,19.30
2022-09-02T22:27:37.549Z,19.30
2022-09-02T22:30:22.936Z,19.20
2022-09-02T22:33:12.687Z,19.20
2022-09-02T22:36:09.155Z,19.20
2022-09-02T22:39:01.078Z,19.20
2022-09-02T22:42:11.602Z,19.10
2022-09-02T22:45:30.865Z,19.00
2022-09-02T22:48:36.812Z,19.00
2022-09-02T22:51:52.492Z,19.00
2022-09-02T22:54:37.707Z,19.00
2022-09-02T22:57:41.139Z,18.80
2022-09-02T23:00:30.499Z,18.80
2022-09-02T23:03:33.505Z,18.80
2022-09-02T23:06:30.671Z,18.80
2022-09-02T23:09:18.430Z,18.80
2022-09-02T23:12:15.415Z,18.80
2022-09-02T23:15:10.280Z,18.70
2022-09-02T23:18:29.373Z,18.70
2022-09-02T23:21:37.115Z,18.60
2022-09-02T23:24:45.207Z,18.50
2022-09-02T23:28:03.854Z,18.50
2022-09-02T23:31:02.324Z,18.30
2022-09-02T23:34:06.846Z,18.40
2022-09-02T23:37:38.282Z,18.30
2022-09-02T23:40:45.094Z,18.20
2022-09-02T23:43:30.676Z,18.20
2022-09-02T23:46:24.572Z,18.30
2022-09-02T23:49:35.087Z,18.20
2022-09-02T23:52:28.948Z,18.20
2022-09-02T23:55:37.630Z,18.30
2022-09-02T23:58:45.032Z,18.30
